sensor_id;sensor_type;location;lat;lon;timestamp;P1;durP1;ratioP1;P2;durP2;ratioP2
56045;SDS011;41913;51.030;3.706;2023-07-31T00:02:02;6.22;;;3.83;;
56045;SDS011;41913;51.030;3.706;2023-07-31T00:04:28;6.53;;;3.67;;
56045;SDS011;41913;51.030;3.706;2023-07-31T00:06:53;8.20;;;4.60;;
56045;SDS011;41913;51.030;3.706;2023-07-31T00:09:19;10.23;;;3.80;;
56045;SDS011;41913;51.030;3.706;2023-07-31T00:11:45;11.20;;;4.70;;
56045;SDS011;41913;51.030;3.706;2023-07-31T00:14:11;8.45;;;3.58;;
56045;SDS011;41913;51.030;3.706;2023-07-31T00:16:36;6.70;;;3.78;;
56045;SDS011;41913;51.030;3.706;2023-07-31T00:19:02;6.93;;;4.18;;
56045;SDS011;41913;51.030;3.706;2023-07-31T00:21:27;5.22;;;3.50;;
56045;SDS011;41913;51.030;3.706;2023-07-31T00:23:53;6.65;;;4.55;;
56045;SDS011;41913;51.030;3.706;2023-07-31T00:26:19;10.00;;;3.90;;
56045;SDS011;41913;51.030;3.706;2023-07-31T00:28:44;9.65;;;5.05;;
56045;SDS011;41913;51.030;3.706;2023-07-31T00:31:10;8.85;;;4.15;;
56045;SDS011;41913;51.030;3.706;2023-07-31T00:33:36;11.95;;;5.30;;
56045;SDS011;41913;51.030;3.706;2023-07-31T00:36:01;7.97;;;3.97;;
56045;SDS011;41913;51.030;3.706;2023-07-31T00:38:29;11.40;;;4.50;;
56045;SDS011;41913;51.030;3.706;2023-07-31T00:40:55;6.15;;;3.47;;
56045;SDS011;41913;51.030;3.706;2023-07-31T00:43:21;6.22;;;3.90;;
56045;SDS011;41913;51.030;3.706;2023-07-31T00:45:47;8.50;;;4.07;;
56045;SDS011;41913;51.030;3.706;2023-07-31T00:48:12;7.10;;;3.88;;
56045;SDS011;41913;51.030;3.706;2023-07-31T00:50:38;4.88;;;3.75;;
56045;SDS011;41913;51.030;3.706;2023-07-31T00:53:04;5.60;;;4.35;;
56045;SDS011;41913;51.030;3.706;2023-07-31T00:55:30;7.75;;;4.22;;
56045;SDS011;41913;51.030;3.706;2023-07-31T00:57:56;7.50;;;3.80;;
56045;SDS011;41913;51.030;3.706;2023-07-31T01:00:22;9.75;;;4.40;;
56045;SDS011;41913;51.030;3.706;2023-07-31T01:02:48;7.45;;;4.32;;
56045;SDS011;41913;51.030;3.706;2023-07-31T01:05:15;10.15;;;4.38;;
56045;SDS011;41913;51.030;3.706;2023-07-31T01:10:16;5.90;;;3.80;;
56045;SDS011;41913;51.030;3.706;2023-07-31T01:12:46;8.40;;;4.15;;
56045;SDS011;41913;51.030;3.706;2023-07-31T01:15:13;6.00;;;3.58;;
56045;SDS011;41913;51.030;3.706;2023-07-31T01:17:42;8.15;;;2.90;;
56045;SDS011;41913;51.030;3.706;2023-07-31T01:20:17;4.57;;;3.55;;
56045;SDS011;41913;51.030;3.706;2023-07-31T01:25:55;8.30;;;4.47;;
56045;SDS011;41913;51.030;3.706;2023-07-31T01:28:42;7.90;;;3.85;;
56045;SDS011;41913;51.030;3.706;2023-07-31T01:31:24;6.50;;;4.00;;
56045;SDS011;41913;51.030;3.706;2023-07-31T01:33:52;6.97;;;3.05;;
56045;SDS011;41913;51.030;3.706;2023-07-31T01:36:19;8.13;;;3.95;;
56045;SDS011;41913;51.030;3.706;2023-07-31T01:38:45;6.68;;;3.67;;
56045;SDS011;41913;51.030;3.706;2023-07-31T01:41:11;5.32;;;3.75;;
56045;SDS011;41913;51.030;3.706;2023-07-31T01:43:37;6.18;;;3.70;;
56045;SDS011;41913;51.030;3.706;2023-07-31T01:46:02;8.65;;;4.18;;
56045;SDS011;41913;51.030;3.706;2023-07-31T01:48:28;5.85;;;3.47;;
56045;SDS011;41913;51.030;3.706;2023-07-31T01:50:54;4.15;;;3.25;;
56045;SDS011;41913;51.030;3.706;2023-07-31T01:53:19;5.28;;;3.60;;
56045;SDS011;41913;51.030;3.706;2023-07-31T01:55:45;4.93;;;2.75;;
56045;SDS011;41913;51.030;3.706;2023-07-31T01:58:10;6.03;;;3.88;;
56045;SDS011;41913;51.030;3.706;2023-07-31T02:00:36;7.28;;;3.72;;
56045;SDS011;41913;51.030;3.706;2023-07-31T02:03:02;7.10;;;3.47;;
56045;SDS011;41913;51.030;3.706;2023-07-31T02:05:27;5.40;;;3.28;;
56045;SDS011;41913;51.030;3.706;2023-07-31T02:07:53;3.50;;;3.00;;
56045;SDS011;41913;51.030;3.706;2023-07-31T02:10:19;5.05;;;3.30;;
56045;SDS011;41913;51.030;3.706;2023-07-31T02:12:44;4.40;;;3.30;;
56045;SDS011;41913;51.030;3.706;2023-07-31T02:15:10;6.97;;;3.92;;
56045;SDS011;41913;51.030;3.706;2023-07-31T02:17:36;6.47;;;3.10;;
56045;SDS011;41913;51.030;3.706;2023-07-31T02:20:01;2.97;;;2.60;;
56045;SDS011;41913;51.030;3.706;2023-07-31T02:22:27;3.25;;;2.70;;
56045;SDS011;41913;51.030;3.706;2023-07-31T02:24:53;3.63;;;2.88;;
56045;SDS011;41913;51.030;3.706;2023-07-31T02:27:19;4.22;;;3.13;;
56045;SDS011;41913;51.030;3.706;2023-07-31T02:29:44;3.67;;;2.85;;
56045;SDS011;41913;51.030;3.706;2023-07-31T02:32:10;7.70;;;3.75;;
56045;SDS011;41913;51.030;3.706;2023-07-31T02:34:36;4.07;;;3.05;;
56045;SDS011;41913;51.030;3.706;2023-07-31T02:37:01;2.97;;;2.67;;
56045;SDS011;41913;51.030;3.706;2023-07-31T02:39:27;8.15;;;3.78;;
56045;SDS011;41913;51.030;3.706;2023-07-31T02:41:53;5.95;;;3.25;;
56045;SDS011;41913;51.030;3.706;2023-07-31T02:44:18;5.55;;;3.10;;
56045;SDS011;41913;51.030;3.706;2023-07-31T02:46:45;3.60;;;3.30;;
56045;SDS011;41913;51.030;3.706;2023-07-31T02:49:11;4.80;;;3.22;;
56045;SDS011;41913;51.030;3.706;2023-07-31T02:51:36;5.45;;;3.22;;
56045;SDS011;41913;51.030;3.706;2023-07-31T02:54:02;4.70;;;2.75;;
56045;SDS011;41913;51.030;3.706;2023-07-31T02:56:28;9.68;;;3.65;;
56045;SDS011;41913;51.030;3.706;2023-07-31T02:58:53;3.08;;;2.75;;
56045;SDS011;41913;51.030;3.706;2023-07-31T03:01:19;3.35;;;3.05;;
56045;SDS011;41913;51.030;3.706;2023-07-31T03:03:44;6.28;;;3.17;;
56045;SDS011;41913;51.030;3.706;2023-07-31T03:06:11;4.45;;;2.53;;
56045;SDS011;41913;51.030;3.706;2023-07-31T03:08:37;4.95;;;2.88;;
56045;SDS011;41913;51.030;3.706;2023-07-31T03:11:02;14.20;;;3.58;;
56045;SDS011;41913;51.030;3.706;2023-07-31T03:13:28;3.17;;;2.75;;
56045;SDS011;41913;51.030;3.706;2023-07-31T03:15:54;5.93;;;2.85;;
56045;SDS011;41913;51.030;3.706;2023-07-31T03:18:19;4.45;;;2.65;;
56045;SDS011;41913;51.030;3.706;2023-07-31T03:20:45;4.15;;;2.92;;
56045;SDS011;41913;51.030;3.706;2023-07-31T03:23:11;5.32;;;2.35;;
56045;SDS011;41913;51.030;3.706;2023-07-31T03:25:37;3.33;;;2.88;;
56045;SDS011;41913;51.030;3.706;2023-07-31T03:28:02;3.45;;;3.15;;
56045;SDS011;41913;51.030;3.706;2023-07-31T03:30:28;2.90;;;2.60;;
56045;SDS011;41913;51.030;3.706;2023-07-31T03:32:53;5.93;;;3.17;;
56045;SDS011;41913;51.030;3.706;2023-07-31T03:35:19;3.22;;;2.40;;
56045;SDS011;41913;51.030;3.706;2023-07-31T03:37:45;4.97;;;3.20;;
56045;SDS011;41913;51.030;3.706;2023-07-31T03:40:11;3.25;;;2.90;;
56045;SDS011;41913;51.030;3.706;2023-07-31T03:42:36;3.78;;;2.20;;
56045;SDS011;41913;51.030;3.706;2023-07-31T03:45:02;4.63;;;2.25;;
56045;SDS011;41913;51.030;3.706;2023-07-31T03:47:28;4.03;;;2.85;;
56045;SDS011;41913;51.030;3.706;2023-07-31T03:49:54;3.15;;;2.85;;
56045;SDS011;41913;51.030;3.706;2023-07-31T03:52:20;4.30;;;3.20;;
56045;SDS011;41913;51.030;3.706;2023-07-31T03:54:46;2.80;;;2.60;;
56045;SDS011;41913;51.030;3.706;2023-07-31T03:57:11;4.65;;;2.38;;
56045;SDS011;41913;51.030;3.706;2023-07-31T03:59:37;5.80;;;2.63;;
56045;SDS011;41913;51.030;3.706;2023-07-31T04:02:05;6.38;;;2.90;;
56045;SDS011;41913;51.030;3.706;2023-07-31T04:04:31;3.35;;;2.58;;
56045;SDS011;41913;51.030;3.706;2023-07-31T04:06:56;5.05;;;2.80;;
56045;SDS011;41913;51.030;3.706;2023-07-31T04:09:22;3.72;;;2.55;;
56045;SDS011;41913;51.030;3.706;2023-07-31T04:11:48;4.82;;;3.10;;
56045;SDS011;41913;51.030;3.706;2023-07-31T04:14:13;4.68;;;3.35;;
56045;SDS011;41913;51.030;3.706;2023-07-31T04:16:39;2.80;;;2.47;;
56045;SDS011;41913;51.030;3.706;2023-07-31T04:19:05;4.70;;;2.78;;
56045;SDS011;41913;51.030;3.706;2023-07-31T04:21:30;5.22;;;2.63;;
56045;SDS011;41913;51.030;3.706;2023-07-31T04:23:56;3.58;;;2.50;;
56045;SDS011;41913;51.030;3.706;2023-07-31T04:26:23;4.30;;;2.83;;
56045;SDS011;41913;51.030;3.706;2023-07-31T04:28:49;3.25;;;2.85;;
56045;SDS011;41913;51.030;3.706;2023-07-31T04:31:14;4.38;;;2.28;;
56045;SDS011;41913;51.030;3.706;2023-07-31T04:33:40;2.40;;;2.28;;
56045;SDS011;41913;51.030;3.706;2023-07-31T04:36:06;2.45;;;2.25;;
56045;SDS011;41913;51.030;3.706;2023-07-31T04:38:31;4.63;;;2.67;;
56045;SDS011;41913;51.030;3.706;2023-07-31T04:40:57;2.92;;;2.50;;
56045;SDS011;41913;51.030;3.706;2023-07-31T04:43:23;3.33;;;2.13;;
56045;SDS011;41913;51.030;3.706;2023-07-31T04:45:49;3.25;;;2.50;;
56045;SDS011;41913;51.030;3.706;2023-07-31T04:48:15;2.78;;;2.10;;
56045;SDS011;41913;51.030;3.706;2023-07-31T04:50:41;2.05;;;1.80;;
56045;SDS011;41913;51.030;3.706;2023-07-31T04:53:06;2.45;;;2.25;;
56045;SDS011;41913;51.030;3.706;2023-07-31T04:55:32;2.20;;;2.00;;
56045;SDS011;41913;51.030;3.706;2023-07-31T04:57:58;4.68;;;2.53;;
56045;SDS011;41913;51.030;3.706;2023-07-31T05:00:24;2.95;;;1.85;;
56045;SDS011;41913;51.030;3.706;2023-07-31T05:02:53;2.13;;;1.95;;
56045;SDS011;41913;51.030;3.706;2023-07-31T05:05:19;1.92;;;1.83;;
56045;SDS011;41913;51.030;3.706;2023-07-31T05:07:44;3.17;;;1.80;;
56045;SDS011;41913;51.030;3.706;2023-07-31T05:10:10;3.03;;;2.30;;
56045;SDS011;41913;51.030;3.706;2023-07-31T05:12:36;2.08;;;1.75;;
56045;SDS011;41913;51.030;3.706;2023-07-31T05:15:02;2.60;;;2.40;;
56045;SDS011;41913;51.030;3.706;2023-07-31T05:17:28;1.75;;;1.58;;
56045;SDS011;41913;51.030;3.706;2023-07-31T05:19:54;1.50;;;1.40;;
56045;SDS011;41913;51.030;3.706;2023-07-31T05:22:20;2.20;;;2.00;;
56045;SDS011;41913;51.030;3.706;2023-07-31T05:24:45;2.03;;;1.90;;
56045;SDS011;41913;51.030;3.706;2023-07-31T05:27:11;2.60;;;2.40;;
56045;SDS011;41913;51.030;3.706;2023-07-31T05:29:40;2.05;;;1.75;;
56045;SDS011;41913;51.030;3.706;2023-07-31T05:32:06;2.30;;;1.80;;
56045;SDS011;41913;51.030;3.706;2023-07-31T05:34:32;2.22;;;2.13;;
56045;SDS011;41913;51.030;3.706;2023-07-31T05:36:57;1.88;;;1.77;;
56045;SDS011;41913;51.030;3.706;2023-07-31T05:39:23;2.33;;;2.10;;
56045;SDS011;41913;51.030;3.706;2023-07-31T05:41:51;1.83;;;1.70;;
56045;SDS011;41913;51.030;3.706;2023-07-31T05:44:17;1.95;;;1.80;;
56045;SDS011;41913;51.030;3.706;2023-07-31T05:46:42;2.53;;;2.03;;
56045;SDS011;41913;51.030;3.706;2023-07-31T05:49:08;1.70;;;1.60;;
56045;SDS011;41913;51.030;3.706;2023-07-31T05:51:33;4.55;;;2.67;;
56045;SDS011;41913;51.030;3.706;2023-07-31T05:54:00;5.85;;;2.40;;
56045;SDS011;41913;51.030;3.706;2023-07-31T05:56:26;2.95;;;2.10;;
56045;SDS011;41913;51.030;3.706;2023-07-31T05:58:52;14.40;;;3.28;;
56045;SDS011;41913;51.030;3.706;2023-07-31T06:01:18;13.35;;;3.90;;
56045;SDS011;41913;51.030;3.706;2023-07-31T06:03:44;9.38;;;2.90;;
56045;SDS011;41913;51.030;3.706;2023-07-31T06:06:09;11.95;;;2.90;;
56045;SDS011;41913;51.030;3.706;2023-07-31T06:08:36;6.97;;;2.30;;
56045;SDS011;41913;51.030;3.706;2023-07-31T06:11:04;1.90;;;1.80;;
56045;SDS011;41913;51.030;3.706;2023-07-31T06:13:30;3.20;;;1.98;;
56045;SDS011;41913;51.030;3.706;2023-07-31T06:15:56;2.47;;;2.25;;
56045;SDS011;41913;51.030;3.706;2023-07-31T06:18:22;7.57;;;3.40;;
56045;SDS011;41913;51.030;3.706;2023-07-31T06:20:48;5.18;;;2.20;;
56045;SDS011;41913;51.030;3.706;2023-07-31T06:23:18;2.50;;;2.03;;
56045;SDS011;41913;51.030;3.706;2023-07-31T06:25:44;2.97;;;2.08;;
56045;SDS011;41913;51.030;3.706;2023-07-31T06:28:10;2.90;;;2.70;;
56045;SDS011;41913;51.030;3.706;2023-07-31T06:30:36;3.05;;;2.08;;
56045;SDS011;41913;51.030;3.706;2023-07-31T06:33:01;3.58;;;1.88;;
56045;SDS011;41913;51.030;3.706;2023-07-31T06:35:27;8.13;;;2.40;;
56045;SDS011;41913;51.030;3.706;2023-07-31T06:37:53;6.82;;;2.50;;
56045;SDS011;41913;51.030;3.706;2023-07-31T06:40:19;3.13;;;2.40;;
56045;SDS011;41913;51.030;3.706;2023-07-31T06:42:44;12.00;;;2.72;;
56045;SDS011;41913;51.030;3.706;2023-07-31T06:45:10;3.67;;;1.70;;
56045;SDS011;41913;51.030;3.706;2023-07-31T06:47:36;5.35;;;2.17;;
56045;SDS011;41913;51.030;3.706;2023-07-31T06:50:02;5.13;;;2.97;;
56045;SDS011;41913;51.030;3.706;2023-07-31T06:52:28;4.95;;;2.50;;
56045;SDS011;41913;51.030;3.706;2023-07-31T06:57:50;3.50;;;2.05;;
56045;SDS011;41913;51.030;3.706;2023-07-31T07:00:16;3.60;;;2.13;;
56045;SDS011;41913;51.030;3.706;2023-07-31T07:02:43;6.07;;;2.88;;
56045;SDS011;41913;51.030;3.706;2023-07-31T07:05:09;2.78;;;2.58;;
56045;SDS011;41913;51.030;3.706;2023-07-31T07:07:35;3.20;;;2.38;;
56045;SDS011;41913;51.030;3.706;2023-07-31T07:10:01;2.63;;;2.00;;
56045;SDS011;41913;51.030;3.706;2023-07-31T07:12:29;1.67;;;1.58;;
56045;SDS011;41913;51.030;3.706;2023-07-31T07:14:56;2.15;;;2.03;;
56045;SDS011;41913;51.030;3.706;2023-07-31T07:17:25;4.10;;;2.67;;
56045;SDS011;41913;51.030;3.706;2023-07-31T07:19:52;2.65;;;2.35;;
56045;SDS011;41913;51.030;3.706;2023-07-31T07:22:18;1.92;;;1.83;;
56045;SDS011;41913;51.030;3.706;2023-07-31T07:24:44;2.50;;;1.65;;
56045;SDS011;41913;51.030;3.706;2023-07-31T07:27:09;2.47;;;2.30;;
56045;SDS011;41913;51.030;3.706;2023-07-31T07:29:35;7.60;;;2.20;;
56045;SDS011;41913;51.030;3.706;2023-07-31T07:32:02;3.30;;;2.47;;
56045;SDS011;41913;51.030;3.706;2023-07-31T07:34:28;3.63;;;1.88;;
56045;SDS011;41913;51.030;3.706;2023-07-31T07:36:54;3.20;;;1.80;;
56045;SDS011;41913;51.030;3.706;2023-07-31T07:39:20;3.05;;;1.83;;
56045;SDS011;41913;51.030;3.706;2023-07-31T07:41:46;2.13;;;1.88;;
56045;SDS011;41913;51.030;3.706;2023-07-31T07:44:13;2.72;;;2.00;;
56045;SDS011;41913;51.030;3.706;2023-07-31T07:46:39;4.35;;;1.70;;
56045;SDS011;41913;51.030;3.706;2023-07-31T07:49:04;2.30;;;2.17;;
56045;SDS011;41913;51.030;3.706;2023-07-31T07:51:30;2.92;;;1.92;;
56045;SDS011;41913;51.030;3.706;2023-07-31T07:53:57;3.50;;;2.00;;
56045;SDS011;41913;51.030;3.706;2023-07-31T07:56:23;2.75;;;1.55;;
56045;SDS011;41913;51.030;3.706;2023-07-31T07:58:50;1.83;;;1.55;;
56045;SDS011;41913;51.030;3.706;2023-07-31T08:01:16;1.88;;;1.75;;
56045;SDS011;41913;51.030;3.706;2023-07-31T08:03:42;1.65;;;1.58;;
56045;SDS011;41913;51.030;3.706;2023-07-31T08:06:08;1.83;;;1.70;;
56045;SDS011;41913;51.030;3.706;2023-07-31T08:08:37;2.72;;;1.60;;
56045;SDS011;41913;51.030;3.706;2023-07-31T08:11:03;2.95;;;1.65;;
56045;SDS011;41913;51.030;3.706;2023-07-31T08:13:29;2.83;;;2.05;;
56045;SDS011;41913;51.030;3.706;2023-07-31T08:15:55;1.55;;;1.45;;
56045;SDS011;41913;51.030;3.706;2023-07-31T08:18:21;1.38;;;1.27;;
56045;SDS011;41913;51.030;3.706;2023-07-31T08:20:46;2.00;;;1.48;;
56045;SDS011;41913;51.030;3.706;2023-07-31T08:23:12;1.70;;;1.60;;
56045;SDS011;41913;51.030;3.706;2023-07-31T08:25:38;1.55;;;1.38;;
56045;SDS011;41913;51.030;3.706;2023-07-31T08:28:04;2.70;;;1.17;;
56045;SDS011;41913;51.030;3.706;2023-07-31T08:30:30;1.00;;;1.00;;
56045;SDS011;41913;51.030;3.706;2023-07-31T08:32:56;1.70;;;1.58;;
56045;SDS011;41913;51.030;3.706;2023-07-31T08:35:23;1.60;;;1.38;;
56045;SDS011;41913;51.030;3.706;2023-07-31T08:37:50;1.20;;;0.90;;
56045;SDS011;41913;51.030;3.706;2023-07-31T08:40:16;1.25;;;1.15;;
56045;SDS011;41913;51.030;3.706;2023-07-31T08:42:47;0.98;;;0.98;;
56045;SDS011;41913;51.030;3.706;2023-07-31T08:45:15;0.80;;;0.80;;
56045;SDS011;41913;51.030;3.706;2023-07-31T08:47:45;1.40;;;1.30;;
56045;SDS011;41913;51.030;3.706;2023-07-31T08:50:13;1.20;;;1.20;;
56045;SDS011;41913;51.030;3.706;2023-07-31T08:52:39;1.48;;;1.23;;
56045;SDS011;41913;51.030;3.706;2023-07-31T08:55:05;1.25;;;1.15;;
56045;SDS011;41913;51.030;3.706;2023-07-31T08:57:32;1.50;;;1.42;;
56045;SDS011;41913;51.030;3.706;2023-07-31T09:00:01;0.95;;;0.95;;
56045;SDS011;41913;51.030;3.706;2023-07-31T09:02:30;1.42;;;1.13;;
56045;SDS011;41913;51.030;3.706;2023-07-31T09:05:07;1.17;;;1.08;;
56045;SDS011;41913;51.030;3.706;2023-07-31T09:07:34;1.30;;;1.20;;
56045;SDS011;41913;51.030;3.706;2023-07-31T09:10:01;1.35;;;1.05;;
56045;SDS011;41913;51.030;3.706;2023-07-31T09:12:27;1.58;;;1.27;;
56045;SDS011;41913;51.030;3.706;2023-07-31T09:14:53;1.42;;;1.05;;
56045;SDS011;41913;51.030;3.706;2023-07-31T09:17:29;1.20;;;1.20;;
56045;SDS011;41913;51.030;3.706;2023-07-31T09:20:20;1.35;;;1.30;;
56045;SDS011;41913;51.030;3.706;2023-07-31T09:22:46;1.00;;;1.00;;
56045;SDS011;41913;51.030;3.706;2023-07-31T09:25:21;1.30;;;1.20;;
56045;SDS011;41913;51.030;3.706;2023-07-31T09:27:54;0.90;;;0.90;;
56045;SDS011;41913;51.030;3.706;2023-07-31T09:30:21;1.40;;;1.30;;
56045;SDS011;41913;51.030;3.706;2023-07-31T09:32:47;1.50;;;1.17;;
56045;SDS011;41913;51.030;3.706;2023-07-31T09:35:30;1.38;;;1.27;;
56045;SDS011;41913;51.030;3.706;2023-07-31T09:38:06;1.10;;;1.10;;
56045;SDS011;41913;51.030;3.706;2023-07-31T09:40:35;1.27;;;1.15;;
56045;SDS011;41913;51.030;3.706;2023-07-31T09:43:05;1.20;;;1.20;;
56045;SDS011;41913;51.030;3.706;2023-07-31T09:45:42;1.45;;;1.27;;
56045;SDS011;41913;51.030;3.706;2023-07-31T09:48:09;0.98;;;0.98;;
56045;SDS011;41913;51.030;3.706;2023-07-31T09:50:41;1.35;;;1.10;;
56045;SDS011;41913;51.030;3.706;2023-07-31T09:53:08;1.38;;;1.15;;
56045;SDS011;41913;51.030;3.706;2023-07-31T09:55:35;1.75;;;1.65;;
56045;SDS011;41913;51.030;3.706;2023-07-31T09:58:05;2.30;;;1.42;;
56045;SDS011;41913;51.030;3.706;2023-07-31T10:00:32;2.65;;;1.48;;
56045;SDS011;41913;51.030;3.706;2023-07-31T10:03:01;1.55;;;1.38;;
56045;SDS011;41913;51.030;3.706;2023-07-31T10:05:34;1.83;;;1.73;;
56045;SDS011;41913;51.030;3.706;2023-07-31T10:08:03;1.10;;;1.10;;
56045;SDS011;41913;51.030;3.706;2023-07-31T10:10:31;1.92;;;1.70;;
56045;SDS011;41913;51.030;3.706;2023-07-31T10:12:59;1.77;;;1.67;;
56045;SDS011;41913;51.030;3.706;2023-07-31T10:15:25;1.60;;;1.50;;
56045;SDS011;41913;51.030;3.706;2023-07-31T10:17:52;1.40;;;1.40;;
56045;SDS011;41913;51.030;3.706;2023-07-31T10:20:20;2.65;;;2.05;;
56045;SDS011;41913;51.030;3.706;2023-07-31T10:22:46;1.52;;;1.48;;
56045;SDS011;41913;51.030;3.706;2023-07-31T10:25:13;1.60;;;1.42;;
56045;SDS011;41913;51.030;3.706;2023-07-31T10:27:40;1.75;;;1.55;;
56045;SDS011;41913;51.030;3.706;2023-07-31T10:30:08;1.45;;;1.45;;
56045;SDS011;41913;51.030;3.706;2023-07-31T10:32:36;1.60;;;1.50;;
56045;SDS011;41913;51.030;3.706;2023-07-31T10:35:05;2.75;;;1.50;;
56045;SDS011;41913;51.030;3.706;2023-07-31T10:37:36;2.45;;;1.80;;
56045;SDS011;41913;51.030;3.706;2023-07-31T10:40:05;1.58;;;1.48;;
56045;SDS011;41913;51.030;3.706;2023-07-31T10:45:14;7.03;;;3.92;;
56045;SDS011;41913;51.030;3.706;2023-07-31T10:48:05;7.25;;;4.03;;
56045;SDS011;41913;51.030;3.706;2023-07-31T10:50:33;5.60;;;3.53;;
56045;SDS011;41913;51.030;3.706;2023-07-31T10:53:03;4.97;;;3.58;;
56045;SDS011;41913;51.030;3.706;2023-07-31T11:00:31;6.28;;;3.88;;
56045;SDS011;41913;51.030;3.706;2023-07-31T11:03:04;43.40;;;15.13;;
56045;SDS011;41913;51.030;3.706;2023-07-31T11:11:14;38.35;;;15.27;;
56045;SDS011;41913;51.030;3.706;2023-07-31T11:13:49;30.70;;;12.65;;
56045;SDS011;41913;51.030;3.706;2023-07-31T11:16:17;30.58;;;12.55;;
56045;SDS011;41913;51.030;3.706;2023-07-31T11:18:45;19.48;;;8.52;;
56045;SDS011;41913;51.030;3.706;2023-07-31T11:21:14;9.88;;;5.93;;
56045;SDS011;41913;51.030;3.706;2023-07-31T11:23:41;7.40;;;4.60;;
56045;SDS011;41913;51.030;3.706;2023-07-31T11:26:10;9.05;;;4.88;;
56045;SDS011;41913;51.030;3.706;2023-07-31T11:28:36;15.50;;;4.57;;
56045;SDS011;41913;51.030;3.706;2023-07-31T11:31:03;6.20;;;3.70;;
56045;SDS011;41913;51.030;3.706;2023-07-31T11:33:29;4.55;;;3.05;;
56045;SDS011;41913;51.030;3.706;2023-07-31T11:35:56;2.97;;;2.67;;
56045;SDS011;41913;51.030;3.706;2023-07-31T11:38:22;3.72;;;2.70;;
56045;SDS011;41913;51.030;3.706;2023-07-31T11:40:53;4.68;;;2.60;;
56045;SDS011;41913;51.030;3.706;2023-07-31T11:43:20;2.90;;;2.47;;
56045;SDS011;41913;51.030;3.706;2023-07-31T11:45:47;2.28;;;2.08;;
56045;SDS011;41913;51.030;3.706;2023-07-31T11:48:21;2.28;;;2.05;;
56045;SDS011;41913;51.030;3.706;2023-07-31T11:50:51;3.17;;;2.72;;
56045;SDS011;41913;51.030;3.706;2023-07-31T11:53:23;3.97;;;2.65;;
56045;SDS011;41913;51.030;3.706;2023-07-31T11:55:58;3.90;;;2.25;;
56045;SDS011;41913;51.030;3.706;2023-07-31T11:58:25;2.20;;;2.00;;
56045;SDS011;41913;51.030;3.706;2023-07-31T12:00:52;3.22;;;2.33;;
56045;SDS011;41913;51.030;3.706;2023-07-31T12:03:18;7.70;;;2.50;;
56045;SDS011;41913;51.030;3.706;2023-07-31T12:05:46;2.70;;;1.90;;
56045;SDS011;41913;51.030;3.706;2023-07-31T12:08:13;6.53;;;2.25;;
56045;SDS011;41913;51.030;3.706;2023-07-31T12:10:38;8.80;;;2.60;;
56045;SDS011;41913;51.030;3.706;2023-07-31T12:13:07;2.80;;;1.90;;
56045;SDS011;41913;51.030;3.706;2023-07-31T12:18:06;3.28;;;1.67;;
56045;SDS011;41913;51.030;3.706;2023-07-31T12:20:33;2.92;;;2.53;;
56045;SDS011;41913;51.030;3.706;2023-07-31T12:22:59;2.03;;;1.92;;
56045;SDS011;41913;51.030;3.706;2023-07-31T12:25:29;2.65;;;2.33;;
56045;SDS011;41913;51.030;3.706;2023-07-31T12:30:40;10.55;;;2.25;;
56045;SDS011;41913;51.030;3.706;2023-07-31T12:33:07;3.20;;;2.30;;
56045;SDS011;41913;51.030;3.706;2023-07-31T12:35:46;5.13;;;2.83;;
56045;SDS011;41913;51.030;3.706;2023-07-31T12:38:12;3.58;;;2.60;;
56045;SDS011;41913;51.030;3.706;2023-07-31T12:40:39;4.05;;;2.92;;
56045;SDS011;41913;51.030;3.706;2023-07-31T12:43:06;4.38;;;2.88;;
56045;SDS011;41913;51.030;3.706;2023-07-31T12:45:33;3.00;;;2.60;;
56045;SDS011;41913;51.030;3.706;2023-07-31T12:47:59;7.65;;;2.95;;
56045;SDS011;41913;51.030;3.706;2023-07-31T12:50:25;4.75;;;2.60;;
56045;SDS011;41913;51.030;3.706;2023-07-31T12:52:53;3.58;;;3.28;;
56045;SDS011;41913;51.030;3.706;2023-07-31T12:55:20;3.30;;;2.28;;
56045;SDS011;41913;51.030;3.706;2023-07-31T12:57:46;4.72;;;2.90;;
56045;SDS011;41913;51.030;3.706;2023-07-31T13:00:12;3.72;;;2.45;;
56045;SDS011;41913;51.030;3.706;2023-07-31T13:02:38;2.55;;;2.35;;
56045;SDS011;41913;51.030;3.706;2023-07-31T13:05:04;2.67;;;2.47;;
56045;SDS011;41913;51.030;3.706;2023-07-31T13:07:30;5.90;;;2.75;;
56045;SDS011;41913;51.030;3.706;2023-07-31T13:09:56;3.42;;;2.38;;
56045;SDS011;41913;51.030;3.706;2023-07-31T13:12:21;2.03;;;1.90;;
56045;SDS011;41913;51.030;3.706;2023-07-31T13:14:47;2.15;;;2.05;;
56045;SDS011;41913;51.030;3.706;2023-07-31T13:17:13;2.80;;;2.50;;
56045;SDS011;41913;51.030;3.706;2023-07-31T13:19:38;2.65;;;2.40;;
56045;SDS011;41913;51.030;3.706;2023-07-31T13:22:04;1.83;;;1.73;;
56045;SDS011;41913;51.030;3.706;2023-07-31T13:24:30;3.45;;;2.03;;
56045;SDS011;41913;51.030;3.706;2023-07-31T13:26:56;3.45;;;2.50;;
56045;SDS011;41913;51.030;3.706;2023-07-31T13:29:22;3.92;;;1.92;;
56045;SDS011;41913;51.030;3.706;2023-07-31T13:31:49;2.72;;;1.92;;
56045;SDS011;41913;51.030;3.706;2023-07-31T13:34:14;2.28;;;1.95;;
56045;SDS011;41913;51.030;3.706;2023-07-31T13:36:40;2.33;;;1.77;;
56045;SDS011;41913;51.030;3.706;2023-07-31T13:39:06;2.17;;;2.00;;
56045;SDS011;41913;51.030;3.706;2023-07-31T13:41:32;2.20;;;1.75;;
56045;SDS011;41913;51.030;3.706;2023-07-31T13:43:58;2.40;;;1.98;;
56045;SDS011;41913;51.030;3.706;2023-07-31T13:46:24;2.72;;;1.73;;
56045;SDS011;41913;51.030;3.706;2023-07-31T13:48:50;2.17;;;1.92;;
56045;SDS011;41913;51.030;3.706;2023-07-31T13:51:19;4.15;;;1.95;;
56045;SDS011;41913;51.030;3.706;2023-07-31T13:53:45;4.75;;;1.80;;
56045;SDS011;41913;51.030;3.706;2023-07-31T13:56:11;1.75;;;1.65;;
56045;SDS011;41913;51.030;3.706;2023-07-31T13:58:37;1.70;;;1.45;;
56045;SDS011;41913;51.030;3.706;2023-07-31T14:01:03;1.65;;;1.60;;
56045;SDS011;41913;51.030;3.706;2023-07-31T14:03:29;2.65;;;1.55;;
56045;SDS011;41913;51.030;3.706;2023-07-31T14:05:55;3.78;;;1.50;;
56045;SDS011;41913;51.030;3.706;2023-07-31T14:08:21;3.60;;;1.60;;
56045;SDS011;41913;51.030;3.706;2023-07-31T14:10:47;3.05;;;2.00;;
56045;SDS011;41913;51.030;3.706;2023-07-31T14:13:13;1.38;;;1.30;;
56045;SDS011;41913;51.030;3.706;2023-07-31T14:15:41;1.40;;;1.30;;
56045;SDS011;41913;51.030;3.706;2023-07-31T14:18:07;1.35;;;1.33;;
56045;SDS011;41913;51.030;3.706;2023-07-31T14:20:32;3.35;;;1.60;;
56045;SDS011;41913;51.030;3.706;2023-07-31T14:22:58;1.50;;;1.40;;
56045;SDS011;41913;51.030;3.706;2023-07-31T14:25:24;1.40;;;1.30;;
56045;SDS011;41913;51.030;3.706;2023-07-31T14:27:50;1.58;;;1.48;;
56045;SDS011;41913;51.030;3.706;2023-07-31T14:30:15;2.05;;;1.95;;
56045;SDS011;41913;51.030;3.706;2023-07-31T14:32:42;1.20;;;1.10;;
56045;SDS011;41913;51.030;3.706;2023-07-31T14:35:07;1.67;;;1.58;;
56045;SDS011;41913;51.030;3.706;2023-07-31T14:37:41;2.58;;;1.45;;
56045;SDS011;41913;51.030;3.706;2023-07-31T14:40:08;1.63;;;1.48;;
56045;SDS011;41913;51.030;3.706;2023-07-31T14:42:35;2.03;;;1.58;;
56045;SDS011;41913;51.030;3.706;2023-07-31T14:45:02;1.75;;;1.42;;
56045;SDS011;41913;51.030;3.706;2023-07-31T14:47:28;1.33;;;1.27;;
56045;SDS011;41913;51.030;3.706;2023-07-31T14:49:56;1.02;;;1.02;;
56045;SDS011;41913;51.030;3.706;2023-07-31T14:52:22;3.38;;;1.20;;
56045;SDS011;41913;51.030;3.706;2023-07-31T14:54:47;2.75;;;1.00;;
56045;SDS011;41913;51.030;3.706;2023-07-31T14:57:13;1.50;;;1.40;;
56045;SDS011;41913;51.030;3.706;2023-07-31T14:59:39;1.20;;;1.10;;
56045;SDS011;41913;51.030;3.706;2023-07-31T15:02:05;1.45;;;1.40;;
56045;SDS011;41913;51.030;3.706;2023-07-31T15:04:31;2.08;;;1.50;;
56045;SDS011;41913;51.030;3.706;2023-07-31T15:06:57;1.48;;;1.38;;
56045;SDS011;41913;51.030;3.706;2023-07-31T15:09:23;1.50;;;1.40;;
56045;SDS011;41913;51.030;3.706;2023-07-31T15:11:48;8.70;;;1.08;;
56045;SDS011;41913;51.030;3.706;2023-07-31T15:14:14;3.88;;;1.20;;